createdAt,value
2017-11-20T00:00:59.744Z,8.8
2017-11-20T00:02:01.499Z,9.4
2017-11-20T00:03:03.231Z,8.8
2017-11-20T00:04:05.001Z,8.1
2017-11-20T00:05:06.706Z,8.6
2017-11-20T00:06:08.425Z,8.8
2017-11-20T00:07:10.209Z,8.6
2017-11-20T00:08:11.957Z,7.8
2017-11-20T00:09:13.646Z,8.5
2017-11-20T00:10:15.415Z,7.2
2017-11-20T00:11:17.134Z,7.8
2017-11-20T00:12:18.916Z,7.7
2017-11-20T00:13:20.651Z,8.7
2017-11-20T00:14:22.376Z,8.6
2017-11-20T00:15:24.123Z,8.9
2017-11-20T00:16:25.858Z,8.1
2017-11-20T00:17:27.628Z,7.4
2017-11-20T00:18:29.343Z,8.0
2017-11-20T00:19:31.087Z,8.4
2017-11-20T00:20:32.823Z,7.6
2017-11-20T00:21:34.543Z,9.0
2017-11-20T00:22:36.254Z,8.1
2017-11-20T00:23:38.039Z,7.9
2017-11-20T00:24:39.823Z,9.1
2017-11-20T00:25:41.498Z,8.8
2017-11-20T00:26:43.156Z,8.2
2017-11-20T00:27:44.871Z,8.2
2017-11-20T00:28:46.551Z,9.0
2017-11-20T00:29:48.217Z,9.8
2017-11-20T00:30:49.880Z,8.8
2017-11-20T00:31:51.562Z,8.6
2017-11-20T00:32:53.303Z,9.3
2017-11-20T00:33:55.090Z,9.2
2017-11-20T00:34:56.837Z,9.7
2017-11-20T00:35:58.526Z,9.3
2017-11-20T00:37:00.273Z,9.9
2017-11-20T00:38:02.089Z,9.2
2017-11-20T00:39:03.809Z,9.5
2017-11-20T00:40:05.605Z,9.6
2017-11-20T00:41:07.373Z,9.8
2017-11-20T00:42:09.155Z,10.9
2017-11-20T00:43:10.902Z,10.7
2017-11-20T00:44:15.786Z,10.2
2017-11-20T00:45:17.353Z,10.0
2017-11-20T00:46:19.055Z,9.9
2017-11-20T00:47:20.824Z,10.6
2017-11-20T00:48:22.873Z,9.7
2017-11-20T00:49:24.596Z,9.6
2017-11-20T00:50:26.306Z,9.7
2017-11-20T00:51:28.043Z,9.9
2017-11-20T00:52:29.769Z,9.1
2017-11-20T00:53:31.491Z,9.0
2017-11-20T00:54:33.202Z,9.5
2017-11-20T00:55:34.911Z,9.6
2017-11-20T00:56:36.591Z,8.4
2017-11-20T00:57:38.338Z,9.0
2017-11-20T00:58:40.053Z,8.8
2017-11-20T00:59:41.770Z,8.3
2017-11-20T01:00:43.589Z,8.9
2017-11-20T01:01:45.317Z,8.2
2017-11-20T01:02:47.000Z,8.1
2017-11-20T01:03:48.748Z,9.3
2017-11-20T01:04:50.512Z,8.3
2017-11-20T01:05:52.234Z,8.1
2017-11-20T01:06:53.966Z,8.3
2017-11-20T01:07:55.715Z,8.6
2017-11-20T01:08:57.477Z,9.0
2017-11-20T01:09:59.208Z,8.2
2017-11-20T01:11:00.952Z,9.3
2017-11-20T01:12:02.717Z,8.1
2017-11-20T01:13:04.422Z,8.2
2017-11-20T01:14:06.149Z,7.6
2017-11-20T01:15:07.894Z,7.0
2017-11-20T01:16:09.674Z,7.4
2017-11-20T01:17:11.424Z,7.5
2017-11-20T01:18:13.156Z,7.0
2017-11-20T01:19:14.859Z,7.9
2017-11-20T01:20:16.599Z,8.1
2017-11-20T01:21:18.328Z,7.9
2017-11-20T01:22:20.064Z,7.2
2017-11-20T01:23:21.793Z,7.2
2017-11-20T01:24:23.560Z,7.7
2017-11-20T01:25:25.307Z,6.8
2017-11-20T01:26:26.988Z,7.2
2017-11-20T01:27:28.698Z,6.8
2017-11-20T01:28:30.431Z,7.3
2017-11-20T01:29:32.087Z,7.0
2017-11-20T01:30:33.743Z,7.2
2017-11-20T01:31:35.415Z,6.6
2017-11-20T01:32:37.077Z,6.6
2017-11-20T01:33:38.740Z,6.9
2017-11-20T01:34:40.477Z,7.5
2017-11-20T01:35:42.154Z,7.5
2017-11-20T01:36:43.813Z,7.3
2017-11-20T01:37:45.476Z,8.5
2017-11-20T01:38:47.180Z,8.4
2017-11-20T01:39:48.848Z,8.4
2017-11-20T01:40:50.500Z,8.4
2017-11-20T01:41:52.153Z,8.8
2017-11-20T01:42:53.824Z,9.2
2017-11-20T01:43:55.463Z,9.0
2017-11-20T01:44:57.114Z,8.4
2017-11-20T01:45:58.797Z,9.4
2017-11-20T01:47:00.450Z,7.8
2017-11-20T01:48:02.118Z,7.1
2017-11-20T01:49:03.756Z,8.3
2017-11-20T01:50:05.415Z,8.2
2017-11-20T01:51:07.071Z,7.5
2017-11-20T01:52:08.769Z,6.9
2017-11-20T01:53:10.435Z,6.7
2017-11-20T01:54:12.138Z,6.3
2017-11-20T01:55:13.857Z,6.3
2017-11-20T01:56:15.567Z,6.2
2017-11-20T01:57:17.220Z,6.9
2017-11-20T01:58:18.910Z,6.9
2017-11-20T01:59:20.565Z,6.4
2017-11-20T02:00:22.217Z,6.9
2017-11-20T02:01:23.875Z,6.5
2017-11-20T02:02:25.506Z,6.0
2017-11-20T02:03:27.153Z,6.6
2017-11-20T02:04:28.798Z,7.2
2017-11-20T02:05:30.455Z,6.5
2017-11-20T02:06:32.108Z,6.6
2017-11-20T02:07:33.747Z,6.8
2017-11-20T02:08:35.400Z,7.2
2017-11-20T02:09:37.040Z,7.4
2017-11-20T02:10:38.682Z,7.9
2017-11-20T02:11:40.337Z,7.9
2017-11-20T02:12:41.992Z,7.5
2017-11-20T02:13:43.628Z,8.0
2017-11-20T02:14:45.301Z,7.8
2017-11-20T02:15:46.952Z,8.4
2017-11-20T02:16:48.596Z,8.5
2017-11-20T02:17:50.241Z,7.3
2017-11-20T02:18:51.894Z,8.2
2017-11-20T02:19:53.538Z,8.4
2017-11-20T02:20:55.260Z,6.6
2017-11-20T02:21:56.911Z,7.3
2017-11-20T02:22:58.560Z,7.6
2017-11-20T02:24:00.230Z,6.9
2017-11-20T02:25:01.953Z,7.4
2017-11-20T02:26:03.601Z,7.1
2017-11-20T02:27:05.249Z,7.2
2017-11-20T02:28:06.891Z,6.9
2017-11-20T02:29:08.548Z,8.0
2017-11-20T02:30:10.237Z,7.8
2017-11-20T02:31:12.580Z,7.2
2017-11-20T02:32:13.565Z,7.2
2017-11-20T02:33:15.204Z,6.6
2017-11-20T02:34:16.859Z,6.5
2017-11-20T02:35:18.503Z,6.9
2017-11-20T02:36:20.149Z,7.0
2017-11-20T02:37:21.820Z,6.5
2017-11-20T02:38:23.458Z,6.1
2017-11-20T02:39:25.104Z,6.1
2017-11-20T02:40:26.758Z,6.4
2017-11-20T02:41:28.399Z,6.8
2017-11-20T02:42:30.046Z,6.4
2017-11-20T02:43:31.709Z,6.6
2017-11-20T02:44:33.401Z,6.7
2017-11-20T02:45:35.051Z,6.6
2017-11-20T02:46:36.700Z,6.0
2017-11-20T02:47:38.349Z,5.9
2017-11-20T02:48:39.991Z,6.3
2017-11-20T02:49:41.644Z,5.4
2017-11-20T02:50:43.320Z,6.1
2017-11-20T02:51:44.963Z,6.4
2017-11-20T02:52:46.612Z,6.8
2017-11-20T02:53:48.253Z,6.3
2017-11-20T02:54:49.902Z,6.3
2017-11-20T02:55:51.548Z,6.0
2017-11-20T02:56:53.191Z,6.6
2017-11-20T02:57:54.837Z,7.0
2017-11-20T02:58:56.489Z,6.3
2017-11-20T02:59:58.144Z,7.0
2017-11-20T03:00:59.807Z,7.8
2017-11-20T03:02:01.440Z,6.8
2017-11-20T03:03:03.081Z,7.2
2017-11-20T03:04:04.729Z,7.1
2017-11-20T03:05:06.388Z,7.7
2017-11-20T03:06:08.034Z,7.5
2017-11-20T03:07:09.685Z,7.7
2017-11-20T03:08:11.330Z,7.3
2017-11-20T03:09:12.979Z,7.3
2017-11-20T03:10:14.680Z,6.7
2017-11-20T03:11:16.345Z,6.8
2017-11-20T03:12:17.994Z,6.4
2017-11-20T03:13:19.641Z,7.3
2017-11-20T03:14:21.299Z,8.2
2017-11-20T03:15:22.945Z,7.4
2017-11-20T03:16:24.590Z,7.4
2017-11-20T03:17:26.248Z,7.4
2017-11-20T03:18:27.869Z,8.4
2017-11-20T03:19:29.517Z,7.5
2017-11-20T03:20:31.172Z,7.7
2017-11-20T03:21:32.817Z,7.0
2017-11-20T03:22:34.471Z,7.5
2017-11-20T03:23:36.124Z,7.7
2017-11-20T03:24:37.779Z,8.2
2017-11-20T03:25:39.412Z,7.5
2017-11-20T03:26:41.066Z,8.3
2017-11-20T03:27:42.698Z,8.3
2017-11-20T03:28:44.353Z,8.4
2017-11-20T03:29:46.002Z,8.9
2017-11-20T03:30:47.645Z,8.8
2017-11-20T03:31:49.293Z,9.0
2017-11-20T03:32:50.934Z,9.2
2017-11-20T03:33:52.644Z,9.6
2017-11-20T03:34:54.291Z,10.0
2017-11-20T03:35:55.950Z,10.1
2017-11-20T03:36:57.602Z,8.5
2017-11-20T03:37:59.309Z,9.3
2017-11-20T03:39:00.963Z,9.2
2017-11-20T03:40:02.649Z,9.1
2017-11-20T03:41:04.367Z,9.2
2017-11-20T03:42:06.018Z,9.8
2017-11-20T03:43:07.810Z,9.7
2017-11-20T03:44:09.465Z,9.5
2017-11-20T03:45:11.104Z,8.9
2017-11-20T03:46:12.751Z,8.6
2017-11-20T03:47:14.396Z,8.7
2017-11-20T03:48:16.067Z,9.0
2017-11-20T03:49:17.729Z,9.3
2017-11-20T03:50:19.386Z,8.8
2017-11-20T03:51:21.040Z,8.8
2017-11-20T03:52:22.685Z,8.3
2017-11-20T03:53:24.328Z,8.3
2017-11-20T03:54:25.979Z,9.0
2017-11-20T03:55:27.620Z,8.9
2017-11-20T03:56:29.299Z,8.5
2017-11-20T03:57:30.956Z,8.2
2017-11-20T03:58:32.597Z,8.3
2017-11-20T03:59:34.246Z,8.6
2017-11-20T04:00:35.913Z,8.9
2017-11-20T04:01:37.567Z,8.5
2017-11-20T04:02:39.212Z,7.9
2017-11-20T04:03:40.855Z,8.5
2017-11-20T04:04:42.527Z,7.9
2017-11-20T04:05:44.177Z,8.1
2017-11-20T04:06:45.834Z,8.0
2017-11-20T04:07:47.476Z,7.9
2017-11-20T04:08:49.121Z,7.5
2017-11-20T04:09:50.770Z,7.7
2017-11-20T04:10:52.421Z,8.7
2017-11-20T04:11:54.076Z,8.3
2017-11-20T04:12:55.717Z,8.6
2017-11-20T04:13:57.367Z,8.1
2017-11-20T04:14:59.024Z,9.3
2017-11-20T04:16:00.672Z,8.0
2017-11-20T04:17:02.352Z,9.4
2017-11-20T04:18:03.996Z,9.9
2017-11-20T04:19:05.644Z,9.8
2017-11-20T04:20:07.277Z,9.7
2017-11-20T04:21:08.923Z,10.8
2017-11-20T04:22:10.593Z,10.9
2017-11-20T04:23:12.251Z,10.5
2017-11-20T04:24:13.903Z,25.4
2017-11-20T04:25:15.559Z,15.9
2017-11-20T04:26:17.215Z,12.7
2017-11-20T04:27:18.859Z,12.7
2017-11-20T04:28:20.507Z,10.6
2017-11-20T04:29:22.160Z,10.6
2017-11-20T04:30:23.808Z,10.9
2017-11-20T04:31:25.466Z,10.4
2017-11-20T04:32:27.113Z,11.1
2017-11-20T04:33:28.776Z,13.3
2017-11-20T04:34:30.406Z,13.0
2017-11-20T04:35:32.051Z,10.6
2017-11-20T04:36:33.693Z,12.4
2017-11-20T04:37:35.347Z,14.8
2017-11-20T04:38:37.009Z,16.0
2017-11-20T04:39:38.666Z,12.9
2017-11-20T04:40:40.308Z,10.8
2017-11-20T04:41:41.962Z,11.2
2017-11-20T04:42:43.601Z,9.7
2017-11-20T04:43:45.250Z,11.6
2017-11-20T04:44:46.904Z,10.7
2017-11-20T04:45:48.542Z,11.0
2017-11-20T04:46:50.183Z,10.7
2017-11-20T04:47:51.841Z,9.3
2017-11-20T04:48:53.488Z,9.5
2017-11-20T04:49:55.132Z,10.3
2017-11-20T04:50:56.793Z,9.4
2017-11-20T04:51:58.431Z,10.2
2017-11-20T04:53:00.093Z,9.5
2017-11-20T04:54:01.740Z,8.6
2017-11-20T04:55:03.392Z,8.2
2017-11-20T04:56:05.071Z,9.0
2017-11-20T04:57:07.345Z,9.6
2017-11-20T04:58:08.993Z,8.4
2017-11-20T04:59:10.643Z,8.8
2017-11-20T05:00:12.354Z,8.6
2017-11-20T05:01:14.005Z,8.9
2017-11-20T05:02:15.649Z,9.2
2017-11-20T05:03:17.300Z,9.5
2017-11-20T05:04:18.942Z,9.0
2017-11-20T05:05:20.590Z,9.6
2017-11-20T05:06:22.235Z,9.4
2017-11-20T05:07:23.885Z,9.8
2017-11-20T05:08:25.536Z,9.8
2017-11-20T05:09:27.186Z,9.7
2017-11-20T05:10:28.847Z,10.6
2017-11-20T05:11:30.483Z,10.3
2017-11-20T05:12:32.174Z,10.5
2017-11-20T05:13:33.814Z,11.5
2017-11-20T05:14:35.465Z,11.5
2017-11-20T05:15:37.106Z,11.7
2017-11-20T05:16:38.782Z,11.3
2017-11-20T05:17:40.425Z,11.6
2017-11-20T05:18:42.076Z,12.4
2017-11-20T05:19:43.728Z,13.0
2017-11-20T05:20:45.363Z,12.5
2017-11-20T05:21:47.016Z,14.2
2017-11-20T05:22:48.670Z,14.4
2017-11-20T05:23:50.329Z,14.5
2017-11-20T05:24:51.971Z,14.1
2017-11-20T05:25:53.629Z,15.4
2017-11-20T05:26:55.277Z,16.5
2017-11-20T05:27:56.951Z,16.9
2017-11-20T05:28:58.600Z,18.0
2017-11-20T05:30:00.240Z,18.5
2017-11-20T05:31:01.895Z,18.5
2017-11-20T05:32:03.550Z,19.3
2017-11-20T05:33:05.196Z,18.8
2017-11-20T05:34:06.847Z,18.0
2017-11-20T05:35:08.502Z,18.8
2017-11-20T05:36:10.153Z,19.0
2017-11-20T05:37:11.800Z,18.6
2017-11-20T05:38:13.500Z,17.5
2017-11-20T05:39:15.135Z,17.3
2017-11-20T05:40:16.786Z,16.6
2017-11-20T05:41:18.436Z,17.9
2017-11-20T05:42:20.083Z,16.1
2017-11-20T05:43:21.728Z,17.6
2017-11-20T05:44:23.382Z,16.5
2017-11-20T05:45:25.032Z,18.3
2017-11-20T05:46:26.687Z,17.1
2017-11-20T05:47:28.358Z,17.1
2017-11-20T05:48:30.080Z,17.5
2017-11-20T05:49:31.724Z,17.9
2017-11-20T05:50:33.369Z,17.9
2017-11-20T05:51:35.016Z,18.8
2017-11-20T05:52:36.660Z,18.7
2017-11-20T05:53:38.310Z,17.9
2017-11-20T05:54:39.964Z,18.3
2017-11-20T05:55:41.612Z,16.7
2017-11-20T05:56:43.265Z,17.0
2017-11-20T05:57:44.918Z,15.8
2017-11-20T05:58:46.632Z,17.4
2017-11-20T05:59:48.292Z,15.4
2017-11-20T06:00:49.934Z,16.1
2017-11-20T06:01:52.205Z,16.4
2017-11-20T06:02:53.852Z,16.6
2017-11-20T06:03:55.511Z,15.5
2017-11-20T06:04:57.168Z,15.2
2017-11-20T06:05:58.819Z,17.9
2017-11-20T06:07:00.485Z,16.2
2017-11-20T06:08:02.135Z,16.2
2017-11-20T06:09:03.788Z,13.6
2017-11-20T06:10:05.443Z,16.8
2017-11-20T06:11:07.089Z,16.5
2017-11-20T06:12:08.736Z,17.4
2017-11-20T06:13:10.392Z,14.0
2017-11-20T06:14:12.040Z,14.9
2017-11-20T06:15:13.822Z,14.7
2017-11-20T06:16:15.463Z,14.1
2017-11-20T06:17:17.111Z,13.2
2017-11-20T06:18:18.771Z,14.8
2017-11-20T06:19:20.413Z,13.5
2017-11-20T06:20:22.075Z,12.4
2017-11-20T06:21:23.716Z,13.4
2017-11-20T06:22:25.369Z,14.4
2017-11-20T06:23:27.028Z,14.0
2017-11-20T06:24:28.675Z,13.7
2017-11-20T06:25:30.321Z,15.0
2017-11-20T06:26:31.967Z,13.2
2017-11-20T06:27:33.610Z,14.0
2017-11-20T06:28:35.286Z,14.2
2017-11-20T06:29:36.941Z,15.1
2017-11-20T06:30:38.591Z,14.2
2017-11-20T06:31:40.231Z,13.7
2017-11-20T06:32:41.890Z,13.7
2017-11-20T06:33:43.549Z,12.3
2017-11-20T06:34:45.202Z,14.3
2017-11-20T06:35:46.850Z,12.5
2017-11-20T06:36:48.515Z,13.3
2017-11-20T06:37:50.164Z,13.6
2017-11-20T06:38:51.825Z,14.8
2017-11-20T06:39:53.472Z,15.2
2017-11-20T06:40:55.120Z,15.2
2017-11-20T06:41:56.767Z,11.7
2017-11-20T06:42:58.415Z,13.8
2017-11-20T06:44:00.064Z,13.8
2017-11-20T06:45:01.718Z,12.7
2017-11-20T06:46:03.364Z,12.7
2017-11-20T06:47:05.003Z,12.6
2017-11-20T06:48:06.652Z,13.1
2017-11-20T06:49:08.308Z,11.6
2017-11-20T06:50:10.011Z,12.8
2017-11-20T06:51:11.670Z,13.5
2017-11-20T06:52:13.328Z,14.2
2017-11-20T06:53:14.984Z,14.5
2017-11-20T06:54:16.640Z,14.5
2017-11-20T06:55:18.282Z,13.7
2017-11-20T06:56:19.943Z,13.2
2017-11-20T06:57:21.621Z,14.8
2017-11-20T06:58:23.296Z,13.9
2017-11-20T06:59:24.942Z,15.8
2017-11-20T07:00:26.603Z,14.8
2017-11-20T07:01:28.246Z,14.4
2017-11-20T07:02:29.907Z,16.0
2017-11-20T07:03:31.555Z,16.3
2017-11-20T07:04:33.208Z,14.8
2017-11-20T07:05:34.916Z,15.8
2017-11-20T07:06:36.568Z,15.8
2017-11-20T07:07:39.077Z,15.9
2017-11-20T07:08:41.206Z,15.9
2017-11-20T07:09:43.011Z,16.6
2017-11-20T07:10:44.677Z,13.9
2017-11-20T07:11:46.329Z,14.0
2017-11-20T07:12:47.998Z,14.8
2017-11-20T07:13:49.655Z,15.0
2017-11-20T07:14:51.290Z,15.5
2017-11-20T07:15:52.956Z,16.6
2017-11-20T07:16:54.631Z,15.9
2017-11-20T07:17:56.286Z,14.9
2017-11-20T07:18:57.962Z,15.3
2017-11-20T07:19:59.614Z,15.6
2017-11-20T07:21:01.252Z,14.6
2017-11-20T07:22:02.904Z,12.9
2017-11-20T07:23:04.664Z,15.1
2017-11-20T07:24:06.315Z,13.8
2017-11-20T07:25:07.970Z,13.2
2017-11-20T07:26:09.734Z,13.3
2017-11-20T07:27:11.386Z,12.6
2017-11-20T07:28:13.053Z,14.3
2017-11-20T07:29:14.712Z,15.8
2017-11-20T07:30:16.356Z,14.3
2017-11-20T07:31:18.019Z,14.8
2017-11-20T07:32:19.690Z,15.6
2017-11-20T07:33:21.354Z,16.0
2017-11-20T07:34:23.018Z,14.7
2017-11-20T07:35:24.676Z,14.5
2017-11-20T07:36:26.357Z,14.2
2017-11-20T07:37:28.030Z,14.9
2017-11-20T07:38:29.683Z,14.8
2017-11-20T07:39:31.347Z,13.4
2017-11-20T07:40:33.032Z,14.1
2017-11-20T07:41:34.686Z,14.1
2017-11-20T07:42:36.341Z,14.3
2017-11-20T07:43:38.003Z,14.1
2017-11-20T07:44:39.677Z,14.9
2017-11-20T07:45:41.350Z,16.4
2017-11-20T07:46:42.994Z,16.4
2017-11-20T07:47:44.656Z,17.1
2017-11-20T07:48:46.346Z,15.5
2017-11-20T07:49:48.000Z,14.3
2017-11-20T07:50:49.650Z,13.2
2017-11-20T07:51:51.315Z,13.3
2017-11-20T07:52:52.976Z,11.7
2017-11-20T07:53:54.644Z,12.2
2017-11-20T07:54:56.289Z,11.3
2017-11-20T07:55:57.954Z,11.3
2017-11-20T07:56:59.737Z,11.6
2017-11-20T07:58:01.400Z,11.8
2017-11-20T07:59:03.064Z,11.3
2017-11-20T08:00:04.722Z,10.9
2017-11-20T08:01:06.395Z,11.2
2017-11-20T08:02:08.132Z,12.0
2017-11-20T08:03:09.787Z,12.2
2017-11-20T08:04:11.451Z,12.1
2017-11-20T08:05:13.099Z,12.2
2017-11-20T08:06:14.788Z,12.4
2017-11-20T08:07:16.439Z,12.3
2017-11-20T08:08:18.180Z,13.4
2017-11-20T08:09:19.985Z,11.7
2017-11-20T08:10:21.946Z,12.5
2017-11-20T08:11:23.658Z,11.7
2017-11-20T08:12:25.314Z,11.5
2017-11-20T08:13:26.970Z,11.0
2017-11-20T08:14:28.624Z,10.4
2017-11-20T08:15:30.302Z,11.0
2017-11-20T08:16:31.954Z,11.5
2017-11-20T08:17:33.620Z,11.5
2017-11-20T08:18:35.277Z,12.2
2017-11-20T08:19:36.942Z,12.7
2017-11-20T08:20:38.597Z,10.9
2017-11-20T08:21:40.255Z,10.4
2017-11-20T08:22:41.911Z,10.3
2017-11-20T08:23:43.574Z,9.8
2017-11-20T08:24:45.218Z,10.3
2017-11-20T08:25:46.875Z,10.5
2017-11-20T08:26:48.527Z,11.4
2017-11-20T08:27:50.186Z,12.2
2017-11-20T08:28:51.834Z,11.7
2017-11-20T08:29:53.491Z,11.0
2017-11-20T08:30:55.162Z,10.6
2017-11-20T08:31:56.947Z,10.3
2017-11-20T08:32:58.610Z,10.6
2017-11-20T08:34:00.272Z,10.5
2017-11-20T08:35:01.936Z,11.4
2017-11-20T08:36:03.618Z,10.9
2017-11-20T08:37:06.615Z,12.1
2017-11-20T08:38:08.264Z,14.9
2017-11-20T08:39:09.922Z,13.3
2017-11-20T08:40:11.577Z,18.0
2017-11-20T08:41:13.233Z,15.8
2017-11-20T08:42:14.938Z,14.4
2017-11-20T08:43:16.600Z,11.2
2017-11-20T08:44:18.261Z,14.8
2017-11-20T08:45:19.916Z,9.9
2017-11-20T08:46:21.564Z,9.7
2017-11-20T08:47:23.223Z,8.7
2017-11-20T08:48:24.880Z,10.0
2017-11-20T08:49:26.556Z,10.8
2017-11-20T08:50:28.220Z,9.0
2017-11-20T08:51:29.881Z,7.6
2017-11-20T08:52:31.587Z,10.7
2017-11-20T08:53:33.246Z,10.1
2017-11-20T08:54:34.903Z,10.0
2017-11-20T08:55:36.582Z,10.4
2017-11-20T08:56:38.231Z,10.5
2017-11-20T08:57:39.892Z,8.7
2017-11-20T08:58:41.548Z,9.2
2017-11-20T08:59:43.186Z,11.2
2017-11-20T09:00:44.840Z,8.7
2017-11-20T09:01:46.510Z,8.5
2017-11-20T09:02:48.169Z,8.7
2017-11-20T09:03:49.827Z,8.2
2017-11-20T09:04:51.481Z,7.9
2017-11-20T09:05:53.143Z,6.7
2017-11-20T09:06:54.807Z,7.1
2017-11-20T09:07:56.503Z,6.5
2017-11-20T09:08:58.176Z,7.7
2017-11-20T09:09:59.857Z,7.2
2017-11-20T09:11:01.529Z,6.6
2017-11-20T09:12:03.172Z,6.2
2017-11-20T09:13:04.830Z,6.4
2017-11-20T09:14:06.479Z,6.7
2017-11-20T09:15:08.179Z,6.3
2017-11-20T09:16:09.965Z,7.7
2017-11-20T09:17:11.764Z,7.3
2017-11-20T09:18:13.548Z,6.6
2017-11-20T09:19:15.368Z,7.8
2017-11-20T09:20:17.177Z,6.7
2017-11-20T09:21:18.888Z,6.2
2017-11-20T09:22:20.581Z,8.4
2017-11-20T09:23:22.381Z,8.5
2017-11-20T09:24:24.190Z,8.3
2017-11-20T09:25:25.997Z,7.3
2017-11-20T09:26:27.856Z,8.7
2017-11-20T09:27:29.756Z,7.2
2017-11-20T09:28:31.393Z,7.1
2017-11-20T09:29:33.329Z,8.9
2017-11-20T09:30:35.135Z,11.1
2017-11-20T09:31:37.066Z,7.8
2017-11-20T09:32:38.740Z,8.3
2017-11-20T09:33:40.695Z,7.3
2017-11-20T09:34:42.456Z,9.8
2017-11-20T09:35:44.377Z,9.4
2017-11-20T09:36:46.050Z,10.8
2017-11-20T09:37:47.719Z,12.7
2017-11-20T09:38:49.366Z,12.7
2017-11-20T09:39:51.510Z,9.0
2017-11-20T09:40:53.181Z,10.4
2017-11-20T09:41:54.852Z,9.5
2017-11-20T09:42:56.501Z,9.8
2017-11-20T09:43:58.157Z,9.0
2017-11-20T09:44:59.809Z,10.9
2017-11-20T09:46:01.472Z,11.5
2017-11-20T09:47:03.161Z,9.2
2017-11-20T09:48:04.800Z,11.5
2017-11-20T09:49:06.462Z,9.0
2017-11-20T09:50:08.109Z,9.2
2017-11-20T09:51:09.768Z,8.8
2017-11-20T09:52:11.416Z,8.6
2017-11-20T09:53:13.117Z,9.9
2017-11-20T09:54:14.867Z,9.2
2017-11-20T09:55:16.512Z,8.9
2017-11-20T09:56:18.171Z,9.7
2017-11-20T09:57:19.839Z,9.7
2017-11-20T09:58:21.530Z,9.4
2017-11-20T09:59:23.189Z,9.6
2017-11-20T10:00:24.833Z,8.9
2017-11-20T10:01:26.532Z,8.9
2017-11-20T10:02:28.197Z,8.1
2017-11-20T10:03:29.853Z,8.5
2017-11-20T10:04:31.812Z,9.3
2017-11-20T10:05:33.465Z,9.0
2017-11-20T10:06:35.124Z,8.1
2017-11-20T10:07:36.813Z,9.2
2017-11-20T10:08:38.438Z,9.5
2017-11-20T10:09:40.101Z,8.6
2017-11-20T10:10:41.757Z,9.4
2017-11-20T10:11:43.441Z,8.4
2017-11-20T10:12:45.086Z,6.9
2017-11-20T10:13:46.736Z,8.3
2017-11-20T10:14:48.398Z,8.1
2017-11-20T10:15:50.074Z,9.5
2017-11-20T10:16:51.834Z,12.5
2017-11-20T10:17:53.525Z,10.2
2017-11-20T10:18:55.169Z,7.5
2017-11-20T10:19:56.847Z,6.4
2017-11-20T10:20:58.511Z,6.2
2017-11-20T10:22:00.206Z,6.1
2017-11-20T10:23:01.851Z,7.0
2017-11-20T10:24:03.513Z,7.8
2017-11-20T10:25:05.172Z,6.5
2017-11-20T10:26:06.837Z,7.2
2017-11-20T10:27:08.491Z,6.8
2017-11-20T10:28:10.148Z,5.9
2017-11-20T10:29:11.799Z,6.2
2017-11-20T10:30:13.459Z,6.2
2017-11-20T10:31:15.112Z,6.4
2017-11-20T10:32:16.770Z,6.6
2017-11-20T10:33:18.471Z,6.8
2017-11-20T10:34:20.134Z,7.7
2017-11-20T10:35:23.051Z,7.6
2017-11-20T10:36:24.696Z,7.1
2017-11-20T10:37:26.395Z,6.4
2017-11-20T10:38:28.052Z,5.5
2017-11-20T10:39:29.783Z,6.0
2017-11-20T10:40:31.459Z,5.5
2017-11-20T10:41:33.122Z,5.5
2017-11-20T10:42:34.777Z,6.1
2017-11-20T10:43:36.433Z,5.6
2017-11-20T10:44:38.090Z,5.6
2017-11-20T10:45:39.752Z,4.2
2017-11-20T10:46:41.410Z,4.8
2017-11-20T10:47:43.069Z,4.8
2017-11-20T10:48:44.714Z,3.8
2017-11-20T10:49:46.373Z,5.1
2017-11-20T10:50:48.034Z,5.0
2017-11-20T10:51:49.689Z,4.7
2017-11-20T10:52:51.357Z,5.0
2017-11-20T10:53:53.002Z,5.1
2017-11-20T10:54:54.661Z,4.0
2017-11-20T10:55:56.317Z,4.1
2017-11-20T10:56:57.967Z,3.7
2017-11-20T10:57:59.716Z,4.4
2017-11-20T10:59:01.381Z,3.8
2017-11-20T11:00:03.027Z,3.9
2017-11-20T11:01:04.680Z,4.2
2017-11-20T11:02:06.473Z,4.2
2017-11-20T11:03:08.110Z,3.9
2017-11-20T11:04:09.762Z,4.0
2017-11-20T11:05:11.424Z,3.6
2017-11-20T11:06:13.081Z,4.1
2017-11-20T11:07:14.748Z,4.0
2017-11-20T11:08:16.431Z,4.0
2017-11-20T11:09:18.078Z,3.8
2017-11-20T11:10:19.731Z,3.7
2017-11-20T11:11:21.378Z,3.0
2017-11-20T11:12:23.062Z,3.2
2017-11-20T11:13:24.716Z,4.0
2017-11-20T11:14:26.376Z,3.4
2017-11-20T11:15:28.031Z,3.5
2017-11-20T11:16:29.681Z,3.1
2017-11-20T11:17:31.336Z,3.6
2017-11-20T11:18:33.024Z,4.8
2017-11-20T11:19:34.677Z,3.6
2017-11-20T11:20:36.348Z,3.1
2017-11-20T11:21:38.025Z,3.3
2017-11-20T11:22:39.679Z,2.8
2017-11-20T11:23:41.329Z,2.9
2017-11-20T11:24:42.991Z,2.7
2017-11-20T11:25:44.669Z,3.0
2017-11-20T11:26:46.308Z,4.1
2017-11-20T11:27:47.957Z,4.4
2017-11-20T11:28:49.635Z,3.8
2017-11-20T11:29:51.505Z,3.9
2017-11-20T11:30:53.156Z,3.7
2017-11-20T11:31:54.811Z,2.9
2017-11-20T11:32:56.471Z,2.6
2017-11-20T11:33:58.188Z,2.7
2017-11-20T11:34:59.844Z,2.9
2017-11-20T11:36:01.504Z,3.5
2017-11-20T11:37:03.157Z,3.0
2017-11-20T11:38:04.830Z,3.2
2017-11-20T11:39:06.485Z,2.7
2017-11-20T11:40:08.136Z,2.3
2017-11-20T11:41:09.800Z,2.6
2017-11-20T11:42:11.461Z,2.2
2017-11-20T11:43:13.124Z,2.3
2017-11-20T11:44:14.896Z,2.3
2017-11-20T11:45:16.549Z,2.4
2017-11-20T11:46:18.207Z,2.1
2017-11-20T11:47:19.856Z,2.5
2017-11-20T11:48:21.503Z,2.1
2017-11-20T11:49:23.157Z,2.2
2017-11-20T11:50:24.808Z,2.6
2017-11-20T11:51:26.461Z,2.7
2017-11-20T11:52:28.110Z,2.6
2017-11-20T11:53:29.753Z,2.6
2017-11-20T11:54:31.414Z,2.1
2017-11-20T11:55:33.088Z,2.5
2017-11-20T11:56:34.729Z,2.3
2017-11-20T11:57:36.426Z,2.2
2017-11-20T11:58:38.096Z,2.7
2017-11-20T11:59:39.757Z,3.1
2017-11-20T12:00:41.415Z,3.6
2017-11-20T12:01:43.074Z,3.1
2017-11-20T12:02:44.736Z,3.7
2017-11-20T12:03:46.390Z,3.2
2017-11-20T12:04:48.105Z,4.2
2017-11-20T12:05:49.732Z,3.8
2017-11-20T12:06:51.399Z,5.4
2017-11-20T12:07:53.058Z,4.9
2017-11-20T12:08:54.718Z,4.0
2017-11-20T12:09:56.396Z,4.6
2017-11-20T12:10:58.072Z,4.2
2017-11-20T12:11:59.721Z,5.4
2017-11-20T12:13:01.379Z,5.0
2017-11-20T12:14:03.029Z,4.0
2017-11-20T12:15:04.688Z,3.6
2017-11-20T12:16:06.351Z,4.0
2017-11-20T12:17:08.163Z,4.2
2017-11-20T12:18:09.807Z,4.1
2017-11-20T12:19:11.471Z,5.4
2017-11-20T12:20:13.136Z,3.9
2017-11-20T12:21:14.797Z,3.8
2017-11-20T12:22:16.443Z,3.7
2017-11-20T12:23:18.159Z,3.7
2017-11-20T12:24:19.821Z,4.1
2017-11-20T12:25:21.460Z,4.9
2017-11-20T12:26:23.126Z,7.2
2017-11-20T12:27:24.790Z,6.9
2017-11-20T12:28:26.435Z,5.1
2017-11-20T12:29:28.086Z,6.4
2017-11-20T12:30:29.739Z,4.9
2017-11-20T12:31:31.390Z,3.8
2017-11-20T12:32:33.041Z,3.9
2017-11-20T12:33:34.699Z,3.8
2017-11-20T12:34:36.358Z,4.8
2017-11-20T12:35:38.010Z,4.7
2017-11-20T12:36:39.665Z,3.6
2017-11-20T12:37:41.345Z,4.3
2017-11-20T12:38:43.005Z,4.5
2017-11-20T12:39:44.712Z,4.5
2017-11-20T12:40:46.329Z,4.3
2017-11-20T12:41:47.990Z,3.8
2017-11-20T12:42:49.686Z,5.1
2017-11-20T12:43:51.333Z,3.9
2017-11-20T12:44:52.994Z,4.6
2017-11-20T12:45:54.649Z,4.8
2017-11-20T12:46:56.302Z,4.1
2017-11-20T12:47:57.956Z,5.1
2017-11-20T12:48:59.605Z,8.0
2017-11-20T12:50:01.255Z,9.4
2017-11-20T12:51:02.913Z,7.7
2017-11-20T12:52:04.567Z,10.1
2017-11-20T12:53:06.222Z,7.3
2017-11-20T12:54:07.946Z,11.5
2017-11-20T12:55:09.611Z,15.0
2017-11-20T12:56:11.266Z,15.7
2017-11-20T12:57:12.920Z,12.1
2017-11-20T12:58:14.583Z,14.7
2017-11-20T12:59:16.248Z,15.6
2017-11-20T13:00:17.907Z,14.9
2017-11-20T13:01:19.564Z,15.6
2017-11-20T13:02:21.210Z,14.3
2017-11-20T13:03:22.868Z,12.3
2017-11-20T13:04:24.528Z,13.0
2017-11-20T13:05:26.174Z,13.4
2017-11-20T13:06:27.834Z,13.2
2017-11-20T13:07:29.498Z,12.3
2017-11-20T13:08:31.160Z,10.7
2017-11-20T13:09:32.816Z,10.4
2017-11-20T13:10:34.464Z,10.2
2017-11-20T13:11:36.110Z,9.1
2017-11-20T13:12:37.759Z,8.5
2017-11-20T13:13:39.429Z,8.5
2017-11-20T13:14:41.064Z,8.2
2017-11-20T13:15:42.718Z,7.6
2017-11-20T13:16:44.376Z,8.6
2017-11-20T13:17:46.023Z,9.3
2017-11-20T13:18:47.741Z,8.4
2017-11-20T13:19:49.391Z,8.2
2017-11-20T13:20:51.042Z,8.6
2017-11-20T13:21:52.722Z,7.7
2017-11-20T13:22:54.374Z,7.5
2017-11-20T13:23:56.022Z,7.0
2017-11-20T13:24:57.678Z,7.6
2017-11-20T13:25:59.344Z,6.7
2017-11-20T13:27:00.982Z,6.8
2017-11-20T13:28:02.639Z,6.7
2017-11-20T13:29:04.292Z,5.9
2017-11-20T13:30:05.945Z,6.0
2017-11-20T13:31:07.597Z,6.6
2017-11-20T13:32:09.366Z,5.6
2017-11-20T13:33:11.043Z,6.7
2017-11-20T13:34:13.937Z,7.8
2017-11-20T13:35:15.583Z,7.4
2017-11-20T13:36:17.241Z,6.2
2017-11-20T13:37:18.887Z,6.1
2017-11-20T13:38:20.542Z,5.8
2017-11-20T13:39:22.197Z,5.1
2017-11-20T13:40:23.837Z,5.9
2017-11-20T13:41:25.504Z,8.0
2017-11-20T13:42:27.164Z,9.1
2017-11-20T13:43:28.814Z,7.6
2017-11-20T13:44:30.466Z,7.2
2017-11-20T13:45:32.138Z,9.1
2017-11-20T13:46:33.790Z,9.5
2017-11-20T13:47:35.406Z,8.0
2017-11-20T13:48:37.055Z,7.5
2017-11-20T13:49:38.713Z,6.5
2017-11-20T13:50:40.367Z,6.5
2017-11-20T13:51:42.033Z,7.8
2017-11-20T13:52:43.684Z,6.7
2017-11-20T13:53:45.338Z,6.5
2017-11-20T13:54:47.005Z,7.6
2017-11-20T13:55:48.658Z,8.0
2017-11-20T13:56:50.324Z,6.4
2017-11-20T13:57:51.970Z,6.8
2017-11-20T13:58:53.730Z,8.1
2017-11-20T13:59:56.321Z,7.2